createdAt,value
2019-04-29T00:00:16.170Z,0.00
2019-04-29T00:01:16.192Z,0.00
2019-04-29T00:03:09.172Z,0.00
2019-04-29T00:04:09.226Z,0.00
2019-04-29T00:06:02.221Z,0.00
2019-04-29T00:07:02.259Z,0.00
2019-04-29T00:08:55.239Z,0.00
2019-04-29T00:09:55.293Z,0.00
2019-04-29T00:11:48.317Z,0.00
2019-04-29T00:12:48.348Z,0.00
2019-04-29T00:14:41.328Z,0.00
2019-04-29T00:15:41.389Z,0.00
2019-04-29T00:17:34.425Z,0.00
2019-04-29T00:18:34.423Z,0.00
2019-04-29T00:20:27.406Z,0.00
2019-04-29T00:21:27.456Z,0.00
2019-04-29T00:23:20.461Z,0.00
2019-04-29T00:24:20.495Z,0.00
2019-04-29T00:26:13.485Z,0.00
2019-04-29T00:27:13.539Z,0.00
2019-04-29T00:29:06.530Z,0.00
2019-04-29T00:30:06.575Z,0.00
2019-04-29T00:31:59.567Z,0.00
2019-04-29T00:32:59.607Z,0.00
2019-04-29T00:34:52.579Z,0.00
2019-04-29T00:35:52.639Z,0.00
2019-04-29T00:37:45.636Z,0.00
2019-04-29T00:38:45.672Z,0.00
2019-04-29T00:40:38.649Z,0.00
2019-04-29T00:41:38.705Z,0.00
2019-04-29T00:43:31.703Z,0.00
2019-04-29T00:44:31.736Z,0.00
2019-04-29T00:46:24.716Z,0.00
2019-04-29T00:47:24.767Z,0.00
2019-04-29T00:49:17.776Z,0.00
2019-04-29T00:50:17.804Z,0.00
2019-04-29T00:52:10.808Z,0.00
2019-04-29T00:53:10.833Z,0.00
2019-04-29T00:55:03.810Z,0.00
2019-04-29T00:56:03.859Z,0.00
2019-04-29T00:57:56.863Z,0.00
2019-04-29T00:58:56.898Z,0.00
2019-04-29T01:00:50.404Z,0.00
2019-04-29T01:01:50.438Z,0.00
2019-04-29T01:03:43.426Z,0.00
2019-04-29T01:04:43.482Z,0.00
2019-04-29T01:06:36.483Z,0.00
2019-04-29T01:07:36.519Z,0.00
2019-04-29T01:09:29.495Z,0.00
2019-04-29T01:10:29.555Z,0.00
2019-04-29T01:12:22.546Z,0.00
2019-04-29T01:13:22.580Z,0.00
2019-04-29T01:15:15.616Z,0.00
2019-04-29T01:16:15.611Z,0.00
2019-04-29T01:18:08.592Z,0.00
2019-04-29T01:19:08.653Z,0.00
2019-04-29T01:21:01.653Z,0.00
2019-04-29T01:22:01.682Z,0.00
2019-04-29T01:23:54.682Z,0.00
2019-04-29T01:24:54.717Z,0.00
2019-04-29T01:26:47.722Z,0.00
2019-04-29T01:27:47.753Z,0.00
2019-04-29T01:29:40.732Z,0.00
2019-04-29T01:30:40.787Z,0.00
2019-04-29T01:32:33.789Z,0.00
2019-04-29T01:33:33.823Z,0.00
2019-04-29T01:35:26.797Z,0.00
2019-04-29T01:36:26.854Z,0.00
2019-04-29T01:38:19.860Z,0.00
2019-04-29T01:39:19.892Z,0.00
2019-04-29T01:41:12.868Z,0.00
2019-04-29T01:42:12.922Z,0.00
2019-04-29T01:44:05.931Z,0.00
2019-04-29T01:45:05.960Z,0.00
2019-04-29T01:46:58.951Z,0.00
2019-04-29T01:47:58.992Z,0.00
2019-04-29T01:49:51.987Z,0.00
2019-04-29T01:50:52.032Z,0.00
2019-04-29T01:52:45.030Z,0.00
2019-04-29T01:53:45.063Z,0.00
2019-04-29T01:55:38.064Z,0.00
2019-04-29T01:56:38.097Z,0.00
2019-04-29T01:58:31.101Z,0.00
2019-04-29T01:59:31.131Z,0.00
2019-04-29T02:01:24.616Z,0.00
2019-04-29T02:02:24.670Z,0.00
2019-04-29T02:04:17.685Z,0.00
2019-04-29T02:05:17.716Z,0.00
2019-04-29T02:07:10.697Z,0.00
2019-04-29T02:08:10.744Z,0.00
2019-04-29T02:10:03.751Z,0.00
2019-04-29T02:11:03.790Z,0.00
2019-04-29T02:12:56.762Z,0.00
2019-04-29T02:13:56.818Z,0.00
2019-04-29T02:15:49.815Z,0.00
2019-04-29T02:16:49.853Z,0.00
2019-04-29T02:18:42.855Z,0.00
2019-04-29T02:19:42.894Z,0.00
2019-04-29T02:21:35.895Z,0.00
2019-04-29T02:22:35.930Z,0.00
2019-04-29T02:24:28.906Z,0.00
2019-04-29T02:25:28.963Z,0.00
2019-04-29T02:27:21.967Z,0.00
2019-04-29T02:28:22.005Z,0.00
2019-04-29T02:30:15.000Z,0.00
2019-04-29T02:31:15.034Z,0.00
2019-04-29T02:33:08.033Z,0.00
2019-04-29T02:34:08.074Z,0.00
2019-04-29T02:36:01.068Z,0.00
2019-04-29T02:37:01.103Z,0.00
2019-04-29T02:38:54.075Z,0.00
2019-04-29T02:39:54.124Z,0.00
2019-04-29T02:41:47.129Z,0.00
2019-04-29T02:42:47.165Z,0.00
2019-04-29T02:44:40.152Z,0.00
2019-04-29T02:45:40.195Z,0.00
2019-04-29T02:47:33.183Z,0.00
2019-04-29T02:48:34.617Z,0.00
2019-04-29T02:50:26.206Z,0.00
2019-04-29T02:51:26.259Z,0.00
2019-04-29T02:53:19.257Z,0.00
2019-04-29T02:54:19.290Z,0.00
2019-04-29T02:56:12.272Z,0.00
2019-04-29T02:57:12.327Z,0.00
2019-04-29T02:59:05.337Z,0.00
2019-04-29T03:00:05.380Z,0.00
2019-04-29T03:01:58.378Z,0.00
2019-04-29T03:02:58.413Z,0.00
2019-04-29T03:04:51.408Z,0.00
2019-04-29T03:05:51.444Z,0.00
2019-04-29T03:07:44.420Z,0.00
2019-04-29T03:08:44.477Z,0.00
2019-04-29T03:10:37.478Z,0.00
2019-04-29T03:11:37.511Z,0.00
2019-04-29T03:13:30.510Z,0.00
2019-04-29T03:14:30.545Z,0.00
2019-04-29T03:16:23.522Z,0.00
2019-04-29T03:17:23.577Z,0.00
2019-04-29T03:19:16.579Z,0.00
2019-04-29T03:20:16.614Z,0.00
2019-04-29T03:22:09.611Z,0.00
2019-04-29T03:23:09.648Z,0.00
2019-04-29T03:25:02.631Z,0.00
2019-04-29T03:26:02.742Z,0.00
2019-04-29T03:27:55.686Z,0.00
2019-04-29T03:28:55.722Z,0.00
2019-04-29T03:30:48.711Z,0.00
2019-04-29T03:31:48.765Z,0.00
2019-04-29T03:33:41.769Z,4.00
2019-04-29T03:34:41.795Z,4.00
2019-04-29T03:36:34.771Z,4.00
2019-04-29T03:37:34.828Z,4.00
2019-04-29T03:39:27.847Z,8.00
2019-04-29T03:40:27.864Z,8.00
2019-04-29T03:42:21.348Z,8.00
2019-04-29T03:43:21.403Z,12.00
2019-04-29T03:45:14.395Z,16.00
2019-04-29T03:46:14.433Z,16.00
2019-04-29T03:48:07.427Z,24.00
2019-04-29T03:49:07.464Z,24.00
2019-04-29T03:51:00.469Z,28.00
2019-04-29T03:52:00.507Z,36.00
2019-04-29T03:53:53.509Z,40.00
2019-04-29T03:54:53.545Z,48.00
2019-04-29T03:56:46.610Z,60.00
2019-04-29T03:57:46.572Z,68.00
2019-04-29T03:59:39.586Z,84.00
2019-04-29T04:00:43.844Z,92.00
2019-04-29T04:02:32.590Z,112.00
2019-04-29T04:03:32.633Z,120.00
2019-04-29T04:05:25.633Z,144.00
2019-04-29T04:06:25.668Z,156.00
2019-04-29T04:08:18.650Z,184.00
2019-04-29T04:09:18.701Z,196.00
2019-04-29T04:11:11.700Z,228.00
2019-04-29T04:12:11.730Z,248.00
2019-04-29T04:14:04.723Z,284.00
2019-04-29T04:15:04.759Z,304.00
2019-04-29T04:16:57.766Z,344.00
2019-04-29T04:17:57.793Z,368.00
2019-04-29T04:19:50.766Z,412.00
2019-04-29T04:20:50.841Z,436.00
2019-04-29T04:22:43.820Z,480.00
2019-04-29T04:23:43.862Z,516.00
2019-04-29T04:25:36.848Z,592.00
2019-04-29T04:26:36.885Z,636.00
2019-04-29T04:28:29.876Z,724.00
2019-04-29T04:29:29.910Z,772.00
2019-04-29T04:31:22.910Z,840.00
2019-04-29T04:32:22.943Z,868.00
2019-04-29T04:34:15.925Z,892.00
2019-04-29T04:35:15.983Z,892.00
2019-04-29T04:37:08.975Z,900.00
2019-04-29T04:38:09.011Z,912.00
2019-04-29T04:40:02.011Z,932.00
2019-04-29T04:41:02.051Z,948.00
2019-04-29T04:42:55.049Z,988.00
2019-04-29T04:43:55.084Z,1016.00
2019-04-29T04:45:48.059Z,1068.00
2019-04-29T04:46:48.119Z,1096.00
2019-04-29T04:48:41.141Z,1172.00
2019-04-29T04:49:41.156Z,1228.00
2019-04-29T04:51:34.143Z,1320.00
2019-04-29T04:52:34.188Z,1368.00
2019-04-29T04:54:27.201Z,1492.00
2019-04-29T04:55:27.229Z,1560.00
2019-04-29T04:57:20.198Z,1688.00
2019-04-29T04:58:20.259Z,1752.00
2019-04-29T05:00:13.242Z,1876.00
2019-04-29T05:01:13.284Z,1940.00
2019-04-29T05:03:06.264Z,2040.00
2019-04-29T05:04:06.315Z,2068.00
2019-04-29T05:05:59.315Z,2040.00
2019-04-29T05:06:59.349Z,2004.00
2019-04-29T05:08:52.327Z,2132.00
2019-04-29T05:09:52.383Z,2120.00
2019-04-29T05:11:45.394Z,2076.00
2019-04-29T05:12:45.430Z,2128.00
2019-04-29T05:14:38.406Z,2288.00
2019-04-29T05:15:38.462Z,2400.00
2019-04-29T05:17:31.462Z,2572.00
2019-04-29T05:18:31.495Z,2612.00
2019-04-29T05:20:24.474Z,2692.00
2019-04-29T05:21:24.531Z,2744.00
2019-04-29T05:23:17.522Z,2788.00
2019-04-29T05:24:17.557Z,2784.00
2019-04-29T05:26:10.557Z,2952.00
2019-04-29T05:27:10.588Z,3136.00
2019-04-29T05:29:03.566Z,3416.00
2019-04-29T05:30:03.635Z,3536.00
2019-04-29T05:31:56.614Z,3736.00
2019-04-29T05:32:56.651Z,3856.00
2019-04-29T05:34:49.632Z,3944.00
2019-04-29T05:35:49.689Z,3844.00
2019-04-29T05:37:42.704Z,3700.00
2019-04-29T05:38:42.722Z,3740.00
2019-04-29T05:40:35.699Z,3868.00
2019-04-29T05:41:36.376Z,3972.00
2019-04-29T05:43:32.196Z,4268.00
2019-04-29T05:44:28.797Z,4544.00
2019-04-29T05:46:23.230Z,5448.00
2019-04-29T05:47:21.830Z,6004.00
2019-04-29T05:49:14.825Z,6864.00
2019-04-29T05:50:16.899Z,7068.00
2019-04-29T05:52:07.880Z,7300.00
2019-04-29T05:53:11.485Z,7468.00
2019-04-29T05:55:01.592Z,7668.00
2019-04-29T05:56:00.936Z,7632.00
2019-04-29T05:57:55.891Z,7336.00
2019-04-29T05:58:53.975Z,7068.00
2019-04-29T06:00:46.952Z,7148.00
2019-04-29T06:01:47.546Z,7224.00
2019-04-29T06:03:40.520Z,7116.00
2019-04-29T06:04:40.548Z,7140.00
2019-04-29T06:06:33.548Z,6892.00
2019-04-29T06:07:33.584Z,6844.00
2019-04-29T06:09:26.558Z,6868.00
2019-04-29T06:10:26.615Z,7180.00
2019-04-29T06:12:19.628Z,7348.00
2019-04-29T06:13:19.651Z,7512.00
2019-04-29T06:15:12.644Z,8208.00
2019-04-29T06:16:16.148Z,9124.00
2019-04-29T06:18:05.686Z,10600.00
2019-04-29T06:19:06.031Z,10144.00
2019-04-29T06:21:08.938Z,10096.00
2019-04-29T06:21:58.769Z,9932.00
2019-04-29T06:23:54.423Z,9972.00
2019-04-29T06:24:51.810Z,10052.00
2019-04-29T06:26:44.798Z,10424.00
2019-04-29T06:27:44.862Z,10436.00
2019-04-29T06:29:37.853Z,10064.00
2019-04-29T06:30:40.618Z,10056.00
2019-04-29T06:32:30.874Z,9672.00
2019-04-29T06:33:31.093Z,10052.00
2019-04-29T06:35:23.941Z,10104.00
2019-04-29T06:36:23.971Z,10356.00
2019-04-29T06:38:16.957Z,12804.00
2019-04-29T06:39:17.016Z,14824.00
2019-04-29T06:41:10.924Z,16800.00
2019-04-29T06:42:10.050Z,17600.00
2019-04-29T06:44:06.188Z,18880.00
2019-04-29T06:45:03.104Z,18432.00
2019-04-29T06:46:56.368Z,19648.00
2019-04-29T06:47:56.145Z,20384.00
2019-04-29T06:49:49.155Z,21312.00
2019-04-29T06:50:49.858Z,21504.00
2019-04-29T06:52:42.180Z,19776.00
2019-04-29T06:53:42.240Z,19488.00
2019-04-29T06:55:35.249Z,22240.00
2019-04-29T06:56:35.288Z,24800.00
2019-04-29T06:58:28.309Z,28288.00
2019-04-29T06:59:28.338Z,34080.00
2019-04-29T07:01:21.327Z,39392.00
2019-04-29T07:02:21.392Z,40416.00
2019-04-29T07:04:14.914Z,39456.00
2019-04-29T07:05:14.967Z,41440.00
2019-04-29T07:07:07.960Z,52576.00
2019-04-29T07:08:08.024Z,54976.00
2019-04-29T07:10:01.041Z,53568.00
2019-04-29T07:11:02.887Z,54720.00
2019-04-29T07:12:54.097Z,52448.00
2019-04-29T07:13:57.704Z,51136.00
2019-04-29T07:15:47.847Z,42528.00
2019-04-29T07:16:47.204Z,40832.00
2019-04-29T07:18:47.811Z,41344.00
2019-04-29T07:19:40.266Z,29696.00
2019-04-29T07:21:33.267Z,33248.00
2019-04-29T07:22:33.336Z,39104.00
2019-04-29T07:24:26.355Z,32768.00
2019-04-29T07:25:28.889Z,43360.00
2019-04-29T07:27:19.393Z,47808.00
2019-04-29T07:28:19.674Z,48000.00
2019-04-29T07:30:12.484Z,40480.00
2019-04-29T07:31:12.535Z,36352.00
2019-04-29T07:33:05.704Z,36544.00
2019-04-29T07:34:08.296Z,41792.00
2019-04-29T07:36:10.288Z,45408.00
2019-04-29T07:36:59.467Z,39328.00
2019-04-29T07:38:56.277Z,38304.00
2019-04-29T07:39:51.759Z,34432.00
2019-04-29T07:41:44.762Z,48768.00
2019-04-29T07:42:44.829Z,41280.00
2019-04-29T07:44:44.078Z,46688.00
2019-04-29T07:45:44.241Z,36256.00
2019-04-29T07:47:31.199Z,36416.00
2019-04-29T07:48:30.983Z,42880.00
2019-04-29T07:50:26.812Z,58432.00
2019-04-29T07:51:24.062Z,56480.00
2019-04-29T07:53:21.890Z,53728.00
2019-04-29T07:54:17.694Z,55712.00
2019-04-29T07:56:10.163Z,52096.00
2019-04-29T07:57:12.365Z,51104.00
2019-04-29T07:59:04.604Z,24352.00
2019-04-29T08:00:03.296Z,17664.00
2019-04-29T08:01:59.873Z,49088.00
2019-04-29T08:02:56.376Z,48896.00
2019-04-29T08:04:49.388Z,46912.00
2019-04-29T08:05:49.459Z,45888.00
2019-04-29T08:07:42.487Z,47392.00
2019-04-29T08:08:54.187Z,42976.00
2019-04-29T08:10:35.567Z,45856.00
2019-04-29T08:11:35.620Z,47424.00
2019-04-29T08:13:28.635Z,47616.00
2019-04-29T08:14:28.708Z,48256.00
2019-04-29T08:16:21.737Z,49056.00
2019-04-29T08:17:21.791Z,48256.00
2019-04-29T08:19:14.801Z,53536.00
2019-04-29T08:20:14.896Z,76608.00
2019-04-29T08:22:07.904Z,100544.00
2019-04-29T08:23:07.959Z,89152.00
2019-04-29T08:25:00.971Z,90400.00
2019-04-29T08:26:02.414Z,89024.00
2019-04-29T08:27:54.081Z,91392.00
2019-04-29T08:29:00.346Z,79520.00
2019-04-29T08:30:47.411Z,85184.00
2019-04-29T08:31:47.219Z,84448.00
2019-04-29T08:33:42.427Z,79968.00
2019-04-29T08:34:41.003Z,83040.00
2019-04-29T08:36:33.337Z,79680.00
2019-04-29T08:37:33.392Z,77344.00
2019-04-29T08:39:29.328Z,69056.00
2019-04-29T08:40:26.508Z,77600.00
2019-04-29T08:42:19.534Z,77664.00
2019-04-29T08:43:20.545Z,75328.00
2019-04-29T08:45:12.599Z,21344.00
2019-04-29T08:46:12.673Z,55392.00
2019-04-29T08:48:05.699Z,78720.00
2019-04-29T08:49:07.618Z,81184.00
2019-04-29T08:50:58.784Z,79808.00
2019-04-29T08:51:58.840Z,76672.00
2019-04-29T08:53:51.886Z,59328.00
2019-04-29T08:54:55.326Z,79360.00
2019-04-29T08:57:01.586Z,79680.00
2019-04-29T08:57:45.024Z,81856.00
2019-04-29T08:59:38.062Z,81408.00
2019-04-29T09:00:38.106Z,61984.00
2019-04-29T09:02:35.074Z,65280.00
2019-04-29T09:03:40.229Z,26816.00
2019-04-29T09:05:24.207Z,64384.00
2019-04-29T09:06:27.693Z,74464.00
2019-04-29T09:08:17.349Z,55904.00
2019-04-29T09:09:28.474Z,51584.00
2019-04-29T09:11:12.900Z,63680.00
2019-04-29T09:12:10.448Z,53184.00
2019-04-29T09:14:03.476Z,48160.00
2019-04-29T09:15:03.540Z,47360.00
2019-04-29T09:16:56.558Z,56800.00
2019-04-29T09:17:56.621Z,38944.00
2019-04-29T09:19:49.647Z,10652.00
2019-04-29T09:20:49.699Z,10244.00
2019-04-29T09:22:42.719Z,10440.00
2019-04-29T09:23:42.774Z,10656.00
2019-04-29T09:25:35.816Z,12376.00
2019-04-29T09:26:35.849Z,14036.00
2019-04-29T09:28:29.912Z,12112.00
2019-04-29T09:29:28.922Z,11800.00
2019-04-29T09:31:21.944Z,12984.00
2019-04-29T09:32:21.990Z,13912.00
2019-04-29T09:34:15.006Z,16024.00
2019-04-29T09:35:15.057Z,14912.00
2019-04-29T09:37:08.065Z,12488.00
2019-04-29T09:38:08.131Z,14148.00
2019-04-29T09:40:01.138Z,19392.00
2019-04-29T09:41:01.630Z,21472.00
2019-04-29T09:42:56.923Z,22752.00
2019-04-29T09:43:54.251Z,19008.00
2019-04-29T09:45:47.270Z,15180.00
2019-04-29T09:46:47.315Z,15852.00
2019-04-29T09:48:40.338Z,18400.00
2019-04-29T09:49:40.374Z,18944.00
2019-04-29T09:51:33.392Z,18720.00
2019-04-29T09:52:33.436Z,18752.00
2019-04-29T09:54:26.450Z,15392.00
2019-04-29T09:55:26.496Z,14320.00
2019-04-29T09:57:19.490Z,14508.00
2019-04-29T09:58:19.556Z,14024.00
2019-04-29T10:00:12.568Z,14004.00
2019-04-29T10:01:13.754Z,14948.00
2019-04-29T10:03:05.609Z,17536.00
2019-04-29T10:04:05.670Z,18176.00
2019-04-29T10:05:58.689Z,18624.00
2019-04-29T10:06:58.735Z,19168.00
2019-04-29T10:08:51.750Z,20224.00
2019-04-29T10:09:57.350Z,20544.00
2019-04-29T10:11:44.783Z,18880.00
2019-04-29T10:12:44.853Z,18144.00
2019-04-29T10:14:37.884Z,19392.00
2019-04-29T10:15:37.908Z,19584.00
2019-04-29T10:17:30.928Z,22048.00
2019-04-29T10:18:31.458Z,20992.00
2019-04-29T10:20:24.007Z,21120.00
2019-04-29T10:21:24.058Z,22656.00
2019-04-29T10:23:17.048Z,19168.00
2019-04-29T10:24:17.117Z,16480.00
2019-04-29T10:26:10.133Z,17408.00
2019-04-29T10:27:10.181Z,19104.00
2019-04-29T10:29:03.179Z,18240.00
2019-04-29T10:30:03.238Z,18080.00
2019-04-29T10:31:56.273Z,19328.00
2019-04-29T10:32:56.312Z,20192.00
2019-04-29T10:34:49.310Z,20064.00
2019-04-29T10:35:49.376Z,21152.00
2019-04-29T10:37:42.381Z,20096.00
2019-04-29T10:38:44.950Z,19872.00
2019-04-29T10:40:35.450Z,19360.00
2019-04-29T10:41:36.015Z,19808.00
2019-04-29T10:43:28.507Z,19968.00
2019-04-29T10:44:28.553Z,18976.00
2019-04-29T10:46:21.547Z,18368.00
2019-04-29T10:47:21.617Z,18464.00
2019-04-29T10:49:14.638Z,20800.00
2019-04-29T10:50:15.599Z,21344.00
2019-04-29T10:52:07.670Z,22336.00
2019-04-29T10:53:10.902Z,22272.00
2019-04-29T10:55:00.744Z,21984.00
2019-04-29T10:56:05.276Z,21856.00
2019-04-29T10:57:53.809Z,21888.00
2019-04-29T10:58:53.846Z,21792.00
2019-04-29T11:00:46.862Z,20800.00
2019-04-29T11:01:54.638Z,20576.00
2019-04-29T11:03:40.412Z,19072.00
2019-04-29T11:04:40.473Z,18592.00
2019-04-29T11:06:35.716Z,18112.00
2019-04-29T11:07:33.534Z,17856.00
2019-04-29T11:09:26.527Z,17952.00
2019-04-29T11:10:26.592Z,18272.00
2019-04-29T11:12:19.652Z,18848.00
2019-04-29T11:13:19.649Z,18720.00
2019-04-29T11:15:13.992Z,18304.00
2019-04-29T11:16:12.706Z,18016.00
2019-04-29T11:18:05.725Z,17280.00
2019-04-29T11:19:05.985Z,16864.00
2019-04-29T11:20:58.766Z,16084.00
2019-04-29T11:22:02.144Z,15636.00
2019-04-29T11:23:54.783Z,17280.00
2019-04-29T11:24:51.884Z,17728.00
2019-04-29T11:26:44.949Z,17312.00
2019-04-29T11:27:44.938Z,17120.00
2019-04-29T11:29:37.960Z,18176.00
2019-04-29T11:30:39.355Z,18432.00
2019-04-29T11:32:31.002Z,18336.00
2019-04-29T11:33:31.069Z,18112.00
2019-04-29T11:35:24.541Z,17216.00
2019-04-29T11:36:24.126Z,16028.00
2019-04-29T11:38:17.140Z,14400.00
2019-04-29T11:39:17.183Z,13700.00
2019-04-29T11:41:12.237Z,13036.00
2019-04-29T11:42:10.241Z,13276.00
2019-04-29T11:44:03.255Z,15036.00
2019-04-29T11:45:03.803Z,13772.00
2019-04-29T11:46:56.308Z,12704.00
2019-04-29T11:47:56.353Z,13128.00
2019-04-29T11:49:49.366Z,13600.00
2019-04-29T11:50:51.581Z,14156.00
2019-04-29T11:52:42.400Z,14884.00
2019-04-29T11:53:42.465Z,15176.00
2019-04-29T11:55:35.479Z,13708.00
2019-04-29T11:56:35.520Z,13416.00
2019-04-29T11:58:28.528Z,13388.00
2019-04-29T11:59:28.755Z,12044.00
2019-04-29T12:01:21.581Z,12272.00
2019-04-29T12:02:23.438Z,12768.00
2019-04-29T12:04:15.148Z,12176.00
2019-04-29T12:05:15.199Z,10912.00
2019-04-29T12:07:08.202Z,10628.00
2019-04-29T12:08:15.911Z,10164.00
2019-04-29T12:10:02.375Z,10616.00
2019-04-29T12:11:07.175Z,11196.00
2019-04-29T12:12:54.350Z,10584.00
2019-04-29T12:13:54.383Z,9732.00
2019-04-29T12:15:49.195Z,8696.00
2019-04-29T12:16:47.436Z,9028.00
2019-04-29T12:18:40.450Z,9948.00
2019-04-29T12:19:40.489Z,9920.00
2019-04-29T12:21:33.493Z,10440.00
2019-04-29T12:22:47.186Z,9968.00
2019-04-29T12:24:26.552Z,9868.00
2019-04-29T12:25:27.504Z,10524.00
2019-04-29T12:27:20.131Z,10904.00
2019-04-29T12:28:19.808Z,10756.00
2019-04-29T12:30:12.668Z,11896.00
2019-04-29T12:31:12.830Z,12360.00
2019-04-29T12:33:05.735Z,13792.00
2019-04-29T12:34:05.797Z,12476.00
2019-04-29T12:36:03.197Z,9336.00
2019-04-29T12:36:59.919Z,9048.00
2019-04-29T12:38:53.031Z,8084.00
2019-04-29T12:39:52.979Z,7768.00
2019-04-29T12:41:48.951Z,8468.00
2019-04-29T12:42:46.041Z,9224.00
2019-04-29T12:44:39.994Z,9324.00
2019-04-29T12:45:39.097Z,9588.00
2019-04-29T12:47:32.090Z,9992.00
2019-04-29T12:48:32.156Z,9720.00
2019-04-29T12:50:25.171Z,9624.00
2019-04-29T12:51:25.207Z,9948.00
2019-04-29T12:53:18.222Z,9880.00
2019-04-29T12:54:18.262Z,9716.00
2019-04-29T12:56:11.625Z,10824.00
2019-04-29T12:57:11.319Z,12572.00
2019-04-29T12:59:04.376Z,15044.00
2019-04-29T13:00:07.698Z,13760.00
2019-04-29T13:01:58.756Z,12596.00
2019-04-29T13:02:59.939Z,13232.00
2019-04-29T13:04:51.545Z,12384.00
2019-04-29T13:05:58.069Z,11780.00
2019-04-29T13:07:43.989Z,12364.00
2019-04-29T13:08:44.051Z,12620.00
2019-04-29T13:10:37.733Z,14208.00
2019-04-29T13:11:48.010Z,14780.00
2019-04-29T13:13:30.109Z,15248.00
2019-04-29T13:14:33.283Z,14916.00
2019-04-29T13:16:23.181Z,14004.00
2019-04-29T13:17:26.578Z,12844.00
2019-04-29T13:19:20.156Z,12056.00
2019-04-29T13:20:16.283Z,12108.00
2019-04-29T13:22:10.640Z,12940.00
2019-04-29T13:23:17.326Z,14096.00
2019-04-29T13:25:02.359Z,14088.00
2019-04-29T13:26:02.390Z,14160.00
2019-04-29T13:27:55.530Z,15460.00
2019-04-29T13:29:00.729Z,15596.00
2019-04-29T13:30:51.384Z,15172.00
2019-04-29T13:31:48.504Z,14952.00
2019-04-29T13:33:46.059Z,13728.00
2019-04-29T13:34:41.645Z,13392.00
2019-04-29T13:36:34.617Z,14332.00
2019-04-29T13:37:34.761Z,14196.00
2019-04-29T13:39:39.155Z,13096.00
2019-04-29T13:40:27.720Z,12292.00
2019-04-29T13:42:20.886Z,10792.00
2019-04-29T13:43:25.763Z,10348.00
2019-04-29T13:45:14.079Z,10152.00
2019-04-29T13:46:13.825Z,10208.00
2019-04-29T13:48:09.011Z,9812.00
2019-04-29T13:49:13.479Z,8648.00
2019-04-29T13:50:59.869Z,8128.00
2019-04-29T13:51:59.932Z,8548.00
2019-04-29T13:53:55.385Z,9276.00
2019-04-29T13:54:53.001Z,10484.00
2019-04-29T13:56:56.133Z,11720.00
2019-04-29T13:57:49.548Z,11956.00
2019-04-29T13:59:42.057Z,13164.00
2019-04-29T14:00:39.092Z,13652.00
2019-04-29T14:02:36.358Z,14512.00
2019-04-29T14:03:32.151Z,13880.00
2019-04-29T14:05:25.190Z,10052.00
2019-04-29T14:06:25.201Z,8420.00
2019-04-29T14:08:18.193Z,6696.00
2019-04-29T14:09:18.278Z,6420.00
2019-04-29T14:11:11.309Z,6952.00
2019-04-29T14:12:46.424Z,7440.00
2019-04-29T14:14:04.301Z,8800.00
2019-04-29T14:15:04.361Z,9340.00
2019-04-29T14:17:17.064Z,9516.00
2019-04-29T14:17:57.415Z,9400.00
2019-04-29T14:19:50.430Z,9296.00
2019-04-29T14:20:51.797Z,8960.00
2019-04-29T14:22:43.463Z,7904.00
2019-04-29T14:23:43.529Z,7176.00
2019-04-29T14:25:36.552Z,6344.00
2019-04-29T14:26:41.752Z,6108.00
2019-04-29T14:28:29.581Z,5864.00
2019-04-29T14:29:30.339Z,5792.00
2019-04-29T14:31:24.257Z,6160.00
2019-04-29T14:32:33.375Z,6656.00
2019-04-29T14:34:19.852Z,7688.00
2019-04-29T14:35:15.747Z,8064.00
2019-04-29T14:37:20.040Z,7988.00
2019-04-29T14:38:08.799Z,8072.00
2019-04-29T14:40:02.955Z,8008.00
2019-04-29T14:41:01.856Z,7856.00
2019-04-29T14:42:58.067Z,7936.00
2019-04-29T14:43:55.304Z,7968.00
2019-04-29T14:45:47.906Z,6900.00
2019-04-29T14:46:47.967Z,6068.00
2019-04-29T14:48:42.598Z,4992.00
2019-04-29T14:49:41.093Z,5116.00
2019-04-29T14:51:36.677Z,5492.00
2019-04-29T14:52:34.069Z,5292.00
2019-04-29T14:54:27.074Z,4280.00
2019-04-29T14:55:27.162Z,4088.00
2019-04-29T14:57:20.130Z,4476.00
2019-04-29T14:58:20.176Z,4764.00
2019-04-29T15:00:13.236Z,4532.00
2019-04-29T15:01:13.780Z,4272.00
2019-04-29T15:03:06.311Z,4244.00
2019-04-29T15:04:17.797Z,4428.00
2019-04-29T15:05:59.291Z,4668.00
2019-04-29T15:06:59.374Z,4580.00
2019-04-29T15:08:52.340Z,4516.00
2019-04-29T15:09:55.791Z,4568.00
2019-04-29T15:11:47.279Z,4808.00
2019-04-29T15:12:52.143Z,4768.00
2019-04-29T15:14:38.446Z,4464.00
2019-04-29T15:15:38.487Z,4148.00
2019-04-29T15:17:31.505Z,3948.00
2019-04-29T15:18:45.855Z,4068.00
2019-04-29T15:20:25.091Z,4444.00
2019-04-29T15:21:32.115Z,4524.00
2019-04-29T15:23:28.521Z,4076.00
2019-04-29T15:24:17.765Z,3780.00
2019-04-29T15:26:10.656Z,3284.00
2019-04-29T15:27:10.718Z,3248.00
2019-04-29T15:29:03.731Z,3928.00
2019-04-29T15:30:03.840Z,4068.00
2019-04-29T15:31:56.774Z,3632.00
2019-04-29T15:32:58.066Z,3864.00
2019-04-29T15:34:49.893Z,4304.00
2019-04-29T15:35:49.921Z,4128.00
2019-04-29T15:37:45.419Z,3724.00
2019-04-29T15:38:48.920Z,3692.00
2019-04-29T15:40:43.134Z,3572.00
2019-04-29T15:41:38.797Z,3480.00
2019-04-29T15:43:46.495Z,3156.00
2019-04-29T15:44:31.583Z,3008.00
2019-04-29T15:46:24.597Z,2904.00
2019-04-29T15:47:27.753Z,2816.00
2019-04-29T15:49:20.186Z,2904.00
2019-04-29T15:50:19.137Z,2732.00
2019-04-29T15:52:10.712Z,2764.00
2019-04-29T15:53:10.723Z,2608.00
2019-04-29T15:55:03.711Z,2432.00
2019-04-29T15:56:06.825Z,2480.00
2019-04-29T15:57:56.799Z,2136.00
2019-04-29T15:58:59.737Z,2028.00
2019-04-29T16:00:49.842Z,1928.00
2019-04-29T16:01:49.933Z,1908.00
2019-04-29T16:03:42.911Z,1676.00
2019-04-29T16:04:46.960Z,1752.00
2019-04-29T16:06:40.182Z,2356.00
2019-04-29T16:07:35.973Z,2704.00
2019-04-29T16:09:50.278Z,2672.00
2019-04-29T16:10:29.032Z,2720.00
2019-04-29T16:12:22.020Z,3028.00
2019-04-29T16:13:22.474Z,3136.00
2019-04-29T16:15:15.094Z,3068.00
2019-04-29T16:16:15.130Z,3048.00
2019-04-29T16:18:13.036Z,3916.00
2019-04-29T16:19:10.206Z,4488.00
2019-04-29T16:21:01.187Z,5152.00
2019-04-29T16:22:01.219Z,5148.00
2019-04-29T16:23:57.597Z,4700.00
2019-04-29T16:24:59.276Z,4300.00
2019-04-29T16:26:53.233Z,3628.00
2019-04-29T16:27:52.986Z,3480.00
2019-04-29T16:29:40.331Z,3480.00
2019-04-29T16:30:40.365Z,3576.00
2019-04-29T16:32:33.381Z,3608.00
2019-04-29T16:33:33.406Z,3448.00
2019-04-29T16:35:34.302Z,3656.00
2019-04-29T16:36:26.460Z,3772.00
2019-04-29T16:38:19.460Z,3980.00
2019-04-29T16:39:19.508Z,4200.00
2019-04-29T16:41:19.612Z,4220.00
2019-04-29T16:42:12.556Z,4224.00
2019-04-29T16:44:05.559Z,4524.00
2019-04-29T16:45:06.323Z,4248.00
2019-04-29T16:46:58.610Z,3712.00
2019-04-29T16:47:58.650Z,3264.00
2019-04-29T16:49:51.696Z,2628.00
2019-04-29T16:50:51.701Z,2796.00
2019-04-29T16:52:44.709Z,3460.00
2019-04-29T16:53:44.760Z,3212.00
2019-04-29T16:55:42.986Z,2296.00
2019-04-29T16:56:37.803Z,1984.00
2019-04-29T16:58:30.809Z,2020.00
2019-04-29T16:59:30.860Z,1936.00
2019-04-29T17:01:23.851Z,1772.00
2019-04-29T17:02:23.914Z,1504.00
2019-04-29T17:04:16.903Z,1168.00
2019-04-29T17:05:16.946Z,1016.00
2019-04-29T17:07:13.357Z,1060.00
2019-04-29T17:08:15.230Z,1312.00
2019-04-29T17:10:03.052Z,1836.00
2019-04-29T17:11:03.048Z,2088.00
2019-04-29T17:12:56.048Z,2220.00
2019-04-29T17:13:56.108Z,2320.00
2019-04-29T17:15:52.341Z,2132.00
2019-04-29T17:16:49.189Z,2068.00
2019-04-29T17:18:42.227Z,2180.00
2019-04-29T17:19:42.191Z,1980.00
2019-04-29T17:21:35.204Z,1960.00
2019-04-29T17:22:35.669Z,1960.00
2019-04-29T17:24:28.254Z,1784.00
2019-04-29T17:25:28.297Z,1584.00
2019-04-29T17:27:21.564Z,1160.00
2019-04-29T17:28:25.414Z,1348.00
2019-04-29T17:30:14.328Z,1408.00
2019-04-29T17:31:15.046Z,1464.00
2019-04-29T17:33:07.755Z,1612.00
2019-04-29T17:34:07.775Z,1676.00
2019-04-29T17:36:00.464Z,1320.00